createdAt,value
2018-07-09T00:02:40.000Z,33.486
2018-07-09T00:12:40.000Z,33.59
2018-07-09T00:22:40.000Z,33.708
2018-07-09T00:32:40.000Z,33.653
2018-07-09T00:42:40.000Z,33.565
2018-07-09T00:52:40.000Z,33.749
2018-07-09T01:02:40.000Z,33.911
2018-07-09T01:12:40.000Z,34.327
2018-07-09T01:22:40.000Z,34.422
2018-07-09T01:32:40.000Z,34.509
2018-07-09T01:42:41.000Z,34.574
2018-07-09T01:52:41.000Z,34.56
2018-07-09T02:02:41.000Z,34.79
2018-07-09T02:12:41.000Z,34.962
2018-07-09T02:22:41.000Z,35.147
2018-07-09T02:32:41.000Z,35.165
2018-07-09T02:42:41.000Z,35.416
2018-07-09T02:52:41.000Z,35.348
2018-07-09T03:02:41.000Z,35.621
2018-07-09T03:12:41.000Z,35.739
2018-07-09T03:22:41.000Z,36.251
2018-07-09T03:32:41.000Z,36.186
2018-07-09T03:42:41.000Z,36.316
2018-07-09T03:52:41.000Z,36.456
2018-07-09T04:02:41.000Z,36.82
2018-07-09T04:12:41.000Z,37.182
2018-07-09T04:22:41.000Z,37.335
2018-07-09T04:32:41.000Z,37.632
2018-07-09T04:42:41.000Z,37.788
2018-07-09T04:52:41.000Z,38.012
2018-07-09T05:02:41.000Z,38.088
2018-07-09T05:12:41.000Z,38.573
2018-07-09T05:22:41.000Z,38.062
2018-07-09T05:32:41.000Z,37.971
2018-07-09T05:42:41.000Z,38.066
2018-07-09T05:52:41.000Z,38.281
2018-07-09T06:02:41.000Z,38.584
2018-07-09T06:12:41.000Z,38.457
2018-07-09T06:22:41.000Z,39.608
2018-07-09T06:32:41.000Z,39.646
2018-07-09T06:42:41.000Z,40.09
2018-07-09T06:52:41.000Z,40.111
2018-07-09T07:02:41.000Z,40.679
2018-07-09T07:12:41.000Z,40.049
2018-07-09T07:22:41.000Z,40.004
2018-07-09T07:32:41.000Z,40.657
2018-07-09T07:42:41.000Z,40.055
2018-07-09T07:52:41.000Z,40.503
2018-07-09T08:02:41.000Z,39.394
2018-07-09T08:12:41.000Z,39.416
2018-07-09T08:22:41.000Z,39.166
2018-07-09T08:32:41.000Z,38.595
2018-07-09T08:42:41.000Z,38.569
2018-07-09T09:02:41.000Z,38.266
2018-07-09T09:12:41.000Z,37.532
2018-07-09T09:22:41.000Z,37.634
2018-07-09T09:32:41.000Z,37.787
2018-07-09T09:42:41.000Z,37.631
2018-07-09T09:52:41.000Z,37.704
2018-07-09T10:02:42.000Z,37.577
2018-07-09T10:12:42.000Z,37.624
2018-07-09T10:22:42.000Z,38.062
2018-07-09T10:32:42.000Z,38.11
2018-07-09T10:42:42.000Z,38.415
2018-07-09T10:52:42.000Z,38.559
2018-07-09T11:02:42.000Z,39.074
2018-07-09T11:12:42.000Z,39.079
2018-07-09T11:22:42.000Z,39.144
2018-07-09T11:32:42.000Z,39.568
2018-07-09T11:42:42.000Z,39.486
2018-07-09T11:52:42.000Z,39.46
2018-07-09T12:02:42.000Z,39.133
2018-07-09T12:12:42.000Z,39.384
2018-07-09T12:22:42.000Z,39.57
2018-07-09T12:32:42.000Z,38.962
2018-07-09T12:42:42.000Z,38.06
2018-07-09T12:52:42.000Z,38.234
2018-07-09T13:02:42.000Z,37.586
2018-07-09T13:12:42.000Z,37.944
2018-07-09T13:22:42.000Z,38.571
2018-07-09T13:32:42.000Z,37.798
2018-07-09T13:42:42.000Z,37.95
2018-07-09T13:52:42.000Z,39.284
2018-07-09T14:02:42.000Z,38.304
2018-07-09T14:12:42.000Z,38.632
2018-07-09T14:22:42.000Z,38.635
2018-07-09T14:32:42.000Z,38.722
2018-07-09T14:42:43.000Z,39.151
2018-07-09T14:52:42.000Z,39.151
2018-07-09T15:02:42.000Z,39.22
2018-07-09T15:12:42.000Z,39.532
2018-07-09T15:22:47.000Z,39.971
2018-07-09T15:32:42.000Z,39.988
2018-07-09T15:42:42.000Z,40.162
2018-07-09T15:52:42.000Z,40.4
2018-07-09T16:02:42.000Z,40.228
2018-07-09T16:12:42.000Z,40.055
2018-07-09T16:22:43.000Z,41.135
2018-07-09T16:32:46.000Z,41.345
2018-07-09T16:42:42.000Z,41.476
2018-07-09T16:52:42.000Z,41.878
2018-07-09T17:02:42.000Z,41.742
2018-07-09T17:12:42.000Z,41.022
2018-07-09T17:22:42.000Z,41.57
2018-07-09T17:32:43.000Z,41.579
2018-07-09T17:42:42.000Z,41.776
2018-07-09T17:52:42.000Z,41.775
2018-07-09T18:02:42.000Z,41.474
2018-07-09T18:12:43.000Z,41.87
2018-07-09T18:22:43.000Z,42.031
2018-07-09T18:32:43.000Z,41.383
2018-07-09T18:42:43.000Z,41.408
2018-07-09T18:52:43.000Z,41.009
2018-07-09T19:02:43.000Z,40.752
2018-07-09T19:12:43.000Z,40.495
2018-07-09T19:32:43.000Z,40.192
2018-07-09T19:42:43.000Z,40.43
2018-07-09T19:52:43.000Z,40
2018-07-09T20:02:43.000Z,39.662
2018-07-09T20:12:43.000Z,39.442
2018-07-09T20:22:43.000Z,39.153
2018-07-09T20:32:43.000Z,39.566
2018-07-09T20:42:43.000Z,39.254
2018-07-09T20:52:43.000Z,38.957
2018-07-09T21:02:43.000Z,38.892
2018-07-09T21:12:43.000Z,38.624
2018-07-09T21:22:43.000Z,38.692
2018-07-09T21:32:43.000Z,38.252
2018-07-09T21:42:43.000Z,37.931
2018-07-09T21:52:43.000Z,37.074
2018-07-09T22:02:43.000Z,37.322
2018-07-09T22:12:43.000Z,37.061
2018-07-09T22:22:43.000Z,36.837
2018-07-09T22:32:43.000Z,36.71
2018-07-09T22:42:43.000Z,36.053
2018-07-09T22:52:43.000Z,36.046
2018-07-09T23:02:43.000Z,35.75
2018-07-09T23:12:43.000Z,35.663
2018-07-09T23:22:43.000Z,35.396
2018-07-09T23:32:43.000Z,35.544
2018-07-09T23:42:43.000Z,35.748
2018-07-09T23:52:43.000Z,35.556
